createdAt,value
2023-02-11T00:00:39.919Z,24.92
2023-02-11T00:03:09.901Z,24.67
2023-02-11T00:05:49.037Z,24.30
2023-02-11T00:08:23.860Z,23.63
2023-02-11T00:11:11.300Z,23.70
2023-02-11T00:14:07.288Z,23.30
2023-02-11T00:16:53.987Z,23.63
2023-02-11T00:19:26.961Z,25.23
2023-02-11T00:21:57.227Z,22.90
2023-02-11T00:24:30.102Z,22.92
2023-02-11T00:27:04.646Z,24.17
2023-02-11T00:29:41.724Z,23.67
2023-02-11T00:32:11.516Z,23.80
2023-02-11T00:34:47.713Z,24.75
2023-02-11T00:37:26.749Z,24.42
2023-02-11T00:39:56.655Z,23.00
2023-02-11T00:42:25.629Z,23.92
2023-02-11T00:44:53.182Z,24.23
2023-02-11T00:47:19.840Z,24.77
2023-02-11T00:49:46.503Z,23.23
2023-02-11T00:52:27.905Z,24.38
2023-02-11T00:54:54.525Z,22.60
2023-02-11T00:57:22.910Z,24.45
2023-02-11T00:59:49.670Z,24.50
2023-02-11T01:02:24.334Z,23.35
2023-02-11T01:04:56.735Z,23.60
2023-02-11T01:07:33.705Z,22.23
2023-02-11T01:10:26.862Z,22.33
2023-02-11T01:12:53.478Z,22.42
2023-02-11T01:15:20.431Z,22.98
2023-02-11T01:17:50.070Z,21.98
2023-02-11T01:20:20.384Z,21.88
2023-02-11T01:22:46.998Z,21.90
2023-02-11T01:25:26.957Z,19.20
2023-02-11T01:27:53.661Z,23.42
2023-02-11T01:30:20.256Z,21.77
2023-02-11T01:33:06.499Z,19.17
2023-02-11T01:35:38.756Z,22.00
2023-02-11T01:38:07.186Z,22.87
2023-02-11T01:40:34.215Z,23.80
2023-02-11T01:43:11.116Z,24.10
2023-02-11T01:45:51.460Z,20.20
2023-02-11T01:48:25.877Z,23.83
2023-02-11T01:50:59.545Z,23.55
2023-02-11T01:53:26.608Z,23.13
2023-02-11T01:55:54.200Z,22.88
2023-02-11T01:58:21.214Z,23.52
2023-02-11T02:00:48.307Z,23.73
2023-02-11T02:03:22.570Z,21.90
2023-02-11T02:06:00.586Z,21.70
2023-02-11T02:08:38.134Z,20.95
2023-02-11T02:11:05.647Z,21.42
2023-02-11T02:13:37.129Z,20.55
2023-02-11T02:16:10.188Z,21.40
2023-02-11T02:19:03.949Z,20.73
2023-02-11T02:21:31.007Z,20.35
2023-02-11T02:24:37.401Z,19.25
2023-02-11T02:27:50.737Z,20.48
2023-02-11T02:30:49.130Z,18.20
2023-02-11T02:33:30.077Z,19.90
2023-02-11T02:36:25.883Z,20.58
2023-02-11T02:39:13.634Z,19.77
2023-02-11T02:41:50.480Z,20.33
2023-02-11T02:44:31.318Z,19.83
2023-02-11T02:46:58.404Z,20.45
2023-02-11T02:49:25.361Z,19.80
2023-02-11T02:52:30.998Z,18.85
2023-02-11T02:55:23.080Z,20.33
2023-02-11T02:58:10.418Z,20.08
2023-02-11T03:01:01.805Z,19.77
2023-02-11T03:03:43.505Z,20.35
2023-02-11T03:06:36.406Z,19.58
2023-02-11T03:09:14.642Z,19.60
2023-02-11T03:11:41.461Z,18.67
2023-02-11T03:14:24.619Z,19.52
2023-02-11T03:16:57.768Z,19.70
2023-02-11T03:19:35.292Z,19.42
2023-02-11T03:22:07.796Z,19.67
2023-02-11T03:24:52.041Z,18.35
2023-02-11T03:27:31.821Z,19.95
2023-02-11T03:30:13.659Z,19.55
2023-02-11T03:33:05.030Z,20.02
2023-02-11T03:36:04.852Z,19.50
2023-02-11T03:38:36.527Z,21.02
2023-02-11T03:41:08.057Z,18.63
2023-02-11T03:44:01.736Z,20.83
2023-02-11T03:46:40.702Z,19.48
2023-02-11T03:49:20.787Z,20.83
2023-02-11T03:51:53.024Z,18.90
2023-02-11T03:54:27.147Z,18.50
2023-02-11T03:56:58.081Z,19.85
2023-02-11T03:59:30.167Z,19.42
2023-02-11T04:04:35.688Z,18.95
2023-02-11T04:07:02.340Z,20.02
2023-02-11T04:09:28.949Z,19.90
2023-02-11T04:12:04.162Z,20.20
2023-02-11T04:14:32.995Z,20.75
2023-02-11T04:16:59.646Z,19.10
2023-02-11T04:19:26.520Z,19.27
2023-02-11T04:21:53.198Z,19.20
2023-02-11T04:24:28.608Z,19.67
2023-02-11T04:26:59.246Z,19.67
2023-02-11T04:29:28.821Z,18.95
2023-02-11T04:31:58.456Z,19.20
2023-02-11T04:34:27.734Z,18.90
2023-02-11T04:36:57.633Z,18.23
2023-02-11T04:39:24.327Z,17.75
2023-02-11T04:41:56.949Z,18.60
2023-02-11T04:44:33.209Z,18.65
2023-02-11T04:47:04.005Z,17.77
2023-02-11T04:49:39.890Z,18.02
2023-02-11T04:52:12.764Z,16.42
2023-02-11T04:57:10.189Z,17.95
2023-02-11T04:59:36.945Z,17.60
2023-02-11T05:02:05.407Z,17.30
2023-02-11T05:04:32.197Z,17.15
2023-02-11T05:07:06.964Z,18.30
2023-02-11T05:09:34.484Z,17.35
2023-02-11T05:12:01.206Z,17.27
2023-02-11T05:14:32.374Z,17.50
2023-02-11T05:17:10.428Z,17.13
2023-02-11T05:19:39.335Z,17.73
2023-02-11T05:22:06.031Z,17.88
2023-02-11T05:24:38.944Z,17.10
2023-02-11T05:27:05.607Z,17.30
2023-02-11T05:29:39.724Z,16.38
2023-02-11T05:32:06.412Z,18.48
2023-02-11T05:34:36.261Z,17.60
2023-02-11T05:37:06.133Z,17.30
2023-02-11T05:39:32.740Z,16.50
2023-02-11T05:41:59.369Z,16.27
2023-02-11T05:44:27.284Z,16.92
2023-02-11T05:46:53.922Z,16.80
2023-02-11T05:49:20.538Z,18.13
2023-02-11T05:51:47.473Z,16.08
2023-02-11T05:54:16.178Z,17.85
2023-02-11T05:56:44.790Z,18.00
2023-02-11T05:59:15.516Z,16.80
2023-02-11T06:01:42.134Z,17.30
2023-02-11T06:04:09.121Z,17.20
2023-02-11T06:06:35.797Z,17.33
2023-02-11T06:09:02.673Z,17.50
2023-02-11T06:11:31.904Z,17.70
2023-02-11T06:13:58.469Z,16.35
2023-02-11T06:16:31.604Z,18.27
2023-02-11T06:19:02.497Z,16.45
2023-02-11T06:21:42.723Z,17.23
2023-02-11T06:24:44.325Z,16.98
2023-02-11T06:27:07.534Z,18.08
2023-02-11T06:29:34.175Z,17.80
2023-02-11T06:32:04.580Z,17.00
2023-02-11T06:34:34.162Z,15.77
2023-02-11T06:37:07.280Z,17.70
2023-02-11T06:39:39.185Z,16.42
2023-02-11T06:42:08.679Z,18.02
2023-02-11T06:44:35.325Z,16.55
2023-02-11T06:47:12.099Z,17.65
2023-02-11T06:49:38.698Z,17.23
2023-02-11T06:52:05.370Z,18.63
2023-02-11T06:54:34.296Z,17.50
2023-02-11T06:57:01.050Z,17.13
2023-02-11T06:59:33.152Z,17.88
2023-02-11T07:04:28.125Z,17.48
2023-02-11T07:06:57.972Z,14.98
2023-02-11T07:09:24.719Z,16.83
2023-02-11T07:11:57.100Z,16.90
2023-02-11T07:14:23.850Z,18.42
2023-02-11T07:16:57.863Z,18.58
2023-02-11T07:19:24.594Z,16.17
2023-02-11T07:21:51.264Z,16.00
2023-02-11T07:24:20.190Z,16.75
2023-02-11T07:26:47.860Z,17.65
2023-02-11T07:29:18.396Z,16.05
2023-02-11T07:31:45.401Z,15.52
2023-02-11T07:34:12.111Z,15.48
2023-02-11T07:36:38.720Z,16.10
2023-02-11T07:39:05.407Z,14.55
2023-02-11T07:41:44.953Z,16.88
2023-02-11T07:44:17.905Z,17.00
2023-02-11T07:46:49.020Z,15.80
2023-02-11T07:49:25.065Z,15.57
2023-02-11T07:51:55.379Z,16.50
2023-02-11T07:54:22.091Z,16.52
2023-02-11T07:56:54.448Z,16.67
2023-02-11T07:59:21.294Z,14.10
2023-02-11T08:01:48.164Z,16.60
2023-02-11T08:04:14.889Z,14.88
2023-02-11T08:06:42.883Z,16.65
2023-02-11T08:09:23.926Z,16.15
2023-02-11T08:11:50.624Z,15.20
2023-02-11T08:14:24.823Z,15.77
2023-02-11T08:19:35.336Z,15.68
2023-02-11T08:22:02.125Z,15.50
2023-02-11T08:24:30.046Z,13.88
2023-02-11T08:26:56.715Z,14.88
2023-02-11T08:29:23.491Z,14.73
2023-02-11T08:31:50.330Z,14.80
2023-02-11T08:34:17.670Z,13.80
2023-02-11T08:36:49.398Z,16.88
2023-02-11T08:39:22.524Z,14.55
2023-02-11T08:41:57.010Z,15.20
2023-02-11T08:44:25.086Z,15.00
2023-02-11T08:52:28.108Z,16.73
2023-02-11T08:54:58.293Z,14.18
2023-02-11T08:57:34.922Z,15.57
2023-02-11T09:00:13.869Z,17.15
2023-02-11T09:02:47.076Z,15.25
2023-02-11T09:05:14.288Z,16.60
2023-02-11T09:07:50.171Z,14.20
2023-02-11T09:10:16.959Z,19.35
2023-02-11T09:12:46.600Z,18.60
2023-02-11T09:15:23.383Z,19.05
2023-02-11T09:17:50.057Z,17.85
2023-02-11T09:20:18.701Z,16.98
2023-02-11T09:22:48.658Z,18.55
2023-02-11T09:25:22.943Z,18.92
2023-02-11T09:27:58.243Z,18.90
2023-02-11T09:30:27.763Z,20.35
2023-02-11T09:33:22.074Z,18.98
2023-02-11T09:35:51.598Z,19.70
2023-02-11T09:38:23.167Z,18.90
2023-02-11T09:40:50.154Z,18.40
2023-02-11T09:43:35.875Z,18.48
2023-02-11T09:48:45.730Z,19.52
2023-02-11T09:51:35.193Z,19.27
2023-02-11T09:54:23.925Z,19.65
2023-02-11T09:56:53.031Z,19.45
2023-02-11T09:59:24.975Z,19.52
2023-02-11T10:01:59.113Z,21.42
2023-02-11T10:04:47.638Z,18.05
2023-02-11T10:07:41.936Z,18.65
2023-02-11T10:10:27.514Z,19.38
2023-02-11T10:12:56.716Z,19.08
2023-02-11T10:15:55.502Z,20.15
2023-02-11T10:18:42.351Z,17.52
2023-02-11T10:21:27.294Z,21.25
2023-02-11T10:23:59.285Z,19.30
2023-02-11T10:26:30.192Z,22.23
2023-02-11T10:29:02.003Z,20.17
2023-02-11T10:31:41.481Z,19.45
2023-02-11T10:34:13.199Z,19.33
2023-02-11T10:36:47.366Z,18.13
2023-02-11T10:39:26.144Z,18.92
2023-02-11T10:41:58.704Z,18.90
2023-02-11T10:44:37.671Z,18.42
2023-02-11T10:47:27.916Z,17.60
2023-02-11T10:50:00.949Z,19.08
2023-02-11T10:52:43.680Z,18.38
2023-02-11T10:55:14.340Z,19.58
2023-02-11T10:57:55.662Z,19.08
2023-02-11T11:00:38.904Z,19.80
2023-02-11T11:03:21.315Z,21.40
2023-02-11T11:06:15.916Z,19.52
2023-02-11T11:08:52.642Z,18.17
2023-02-11T11:11:35.620Z,18.58
2023-02-11T11:14:02.543Z,18.45
2023-02-11T11:16:30.827Z,19.23
2023-02-11T11:19:09.340Z,17.20
2023-02-11T11:21:53.903Z,18.13
2023-02-11T11:24:22.297Z,19.55
2023-02-11T11:26:52.402Z,21.42
2023-02-11T11:29:42.665Z,21.05
2023-02-11T11:32:15.014Z,20.05
2023-02-11T11:34:43.905Z,18.77
2023-02-11T11:37:20.709Z,20.95
2023-02-11T11:40:19.338Z,19.67
2023-02-11T11:42:46.066Z,19.80
2023-02-11T11:45:15.782Z,19.35
2023-02-11T11:48:13.434Z,20.33
2023-02-11T11:50:44.281Z,19.08
2023-02-11T11:53:21.250Z,19.20
2023-02-11T11:56:03.584Z,19.58
2023-02-11T12:01:25.135Z,18.80
2023-02-11T12:04:30.345Z,20.58
2023-02-11T12:07:40.195Z,18.85
2023-02-11T12:10:40.120Z,19.75
2023-02-11T12:13:29.945Z,17.67
2023-02-11T12:16:31.941Z,18.63
2023-02-11T12:19:26.907Z,18.48
2023-02-11T12:22:10.541Z,18.23
2023-02-11T12:24:37.116Z,18.63
2023-02-11T12:27:27.089Z,17.13
2023-02-11T12:30:15.109Z,18.23
2023-02-11T12:32:50.754Z,17.77
2023-02-11T12:35:26.815Z,18.83
2023-02-11T12:38:05.312Z,19.13
2023-02-11T12:41:02.130Z,18.65
2023-02-11T12:43:40.497Z,18.35
2023-02-11T12:46:47.065Z,17.02
2023-02-11T12:49:31.365Z,20.17
2023-02-11T12:52:18.960Z,18.13
2023-02-11T12:55:04.407Z,17.05
2023-02-11T12:57:40.625Z,17.77
2023-02-11T13:00:13.749Z,17.10
2023-02-11T13:02:48.606Z,18.92
2023-02-11T13:05:40.379Z,18.90
2023-02-11T13:08:35.560Z,18.17
2023-02-11T13:11:14.476Z,17.88
2023-02-11T13:14:09.365Z,16.77
2023-02-11T13:16:44.435Z,17.70
2023-02-11T13:19:14.233Z,17.33
2023-02-11T13:22:29.533Z,16.73
2023-02-11T13:25:06.836Z,18.95
2023-02-11T13:28:06.217Z,19.10
2023-02-11T13:30:45.567Z,17.42
2023-02-11T13:33:32.266Z,19.58
2023-02-11T13:36:04.352Z,18.75
2023-02-11T13:38:38.438Z,19.92
2023-02-11T13:41:29.988Z,20.20
2023-02-11T13:44:02.475Z,17.70
2023-02-11T13:46:47.923Z,19.42
2023-02-11T13:49:29.773Z,18.27
2023-02-11T13:51:57.321Z,17.77
2023-02-11T13:54:29.371Z,16.92
2023-02-11T13:57:21.191Z,18.27
2023-02-11T13:59:49.395Z,16.98
2023-02-11T14:02:47.659Z,17.55
2023-02-11T14:05:20.486Z,18.85
2023-02-11T14:08:12.205Z,16.27
2023-02-11T14:10:45.717Z,19.67
2023-02-11T14:13:32.570Z,19.70
2023-02-11T14:16:17.087Z,22.67
2023-02-11T14:18:58.182Z,17.38
2023-02-11T14:21:28.056Z,18.65
2023-02-11T14:24:22.184Z,19.88
2023-02-11T14:27:04.580Z,18.95
2023-02-11T14:29:41.034Z,19.73
2023-02-11T14:32:45.472Z,19.83
2023-02-11T14:35:41.234Z,16.98
2023-02-11T14:38:32.579Z,17.98
2023-02-11T14:41:31.657Z,19.80
2023-02-11T14:44:19.472Z,19.42
2023-02-11T14:47:02.715Z,16.88
2023-02-11T14:49:35.772Z,16.83
2023-02-11T14:55:09.358Z,17.58
2023-02-11T14:57:43.183Z,20.42
2023-02-11T15:00:23.452Z,22.25
2023-02-11T15:02:50.224Z,17.27
2023-02-11T15:05:23.693Z,18.83
2023-02-11T15:10:44.818Z,17.95
2023-02-11T15:13:30.773Z,17.75
2023-02-11T15:16:09.459Z,20.48
2023-02-11T15:19:04.875Z,20.30
2023-02-11T15:21:37.221Z,16.58
2023-02-11T15:24:30.969Z,17.25
2023-02-11T15:27:24.051Z,16.63
2023-02-11T15:29:56.191Z,19.15
2023-02-11T15:32:29.007Z,21.52
2023-02-11T15:35:00.702Z,20.40
2023-02-11T15:37:30.706Z,19.90
2023-02-11T15:40:16.184Z,22.75
2023-02-11T15:43:00.569Z,25.05
2023-02-11T15:46:06.189Z,18.25
2023-02-11T15:48:58.974Z,21.02
2023-02-11T15:51:36.622Z,21.95
2023-02-11T15:54:23.927Z,20.83
2023-02-11T15:57:04.342Z,21.17
2023-02-11T15:59:45.785Z,21.05
2023-02-11T16:02:39.583Z,19.52
2023-02-11T16:05:32.265Z,19.63
2023-02-11T16:08:23.053Z,21.02
2023-02-11T16:11:03.933Z,21.45
2023-02-11T16:13:45.112Z,20.83
2023-02-11T16:16:27.959Z,21.15
2023-02-11T16:19:05.986Z,20.30
2023-02-11T16:21:41.685Z,21.17
2023-02-11T16:24:16.162Z,20.65
2023-02-11T16:26:55.856Z,24.00
2023-02-11T16:29:31.709Z,22.58
2023-02-11T16:32:32.338Z,30.08
2023-02-11T16:35:14.988Z,30.73
2023-02-11T16:37:41.670Z,29.13
2023-02-11T16:40:09.725Z,28.77
2023-02-11T16:42:36.450Z,27.65
2023-02-11T16:45:03.532Z,26.23
2023-02-11T16:47:37.805Z,26.08
2023-02-11T16:50:09.763Z,23.42
2023-02-11T16:52:40.346Z,23.92
2023-02-11T16:55:07.151Z,22.67
2023-02-11T16:57:36.680Z,24.58
2023-02-11T17:00:06.936Z,24.10
2023-02-11T17:02:38.608Z,24.73
2023-02-11T17:05:08.779Z,24.85
2023-02-11T17:07:35.472Z,25.30
2023-02-11T17:12:33.760Z,25.45
2023-02-11T17:15:08.216Z,25.58
2023-02-11T17:17:41.538Z,28.10
2023-02-11T17:20:11.039Z,25.58
2023-02-11T17:22:40.126Z,27.58
2023-02-11T17:25:07.352Z,27.00
2023-02-11T17:27:34.094Z,25.35
2023-02-11T17:30:08.311Z,26.42
2023-02-11T17:32:37.866Z,26.05
2023-02-11T17:35:05.554Z,26.17
2023-02-11T17:37:38.384Z,24.98
2023-02-11T17:40:05.941Z,26.67
2023-02-11T17:42:34.999Z,26.33
2023-02-11T17:45:01.619Z,26.60
2023-02-11T17:47:36.793Z,25.25
2023-02-11T17:50:06.696Z,25.98
2023-02-11T17:52:35.049Z,25.23
2023-02-11T17:55:06.553Z,25.30
2023-02-11T17:57:36.600Z,25.98
2023-02-11T18:00:05.797Z,25.40
2023-02-11T18:02:43.248Z,24.52
2023-02-11T18:05:10.829Z,24.25
2023-02-11T18:07:37.680Z,24.63
2023-02-11T18:10:14.105Z,24.85
2023-02-11T18:12:40.771Z,24.02
2023-02-11T18:15:07.630Z,25.15
2023-02-11T18:17:34.354Z,25.20
2023-02-11T18:20:01.071Z,24.23
2023-02-11T18:22:35.938Z,24.35
2023-02-11T18:25:03.724Z,25.17
2023-02-11T18:27:30.790Z,26.35
2023-02-11T18:30:00.928Z,25.58
2023-02-11T18:32:27.789Z,25.02
2023-02-11T18:34:56.874Z,23.38
2023-02-11T18:37:46.588Z,25.15
2023-02-11T18:40:17.778Z,25.67
2023-02-11T18:42:50.468Z,25.53
2023-02-11T18:45:19.901Z,25.80
2023-02-11T18:47:46.569Z,26.80
2023-02-11T18:50:17.487Z,27.15
2023-02-11T18:52:49.984Z,26.80
2023-02-11T18:55:17.672Z,27.33
2023-02-11T18:57:44.391Z,26.35
2023-02-11T19:00:22.512Z,26.35
2023-02-11T19:03:00.092Z,29.88
2023-02-11T19:05:26.966Z,29.20
2023-02-11T19:07:58.579Z,30.23
2023-02-11T19:10:25.756Z,28.10
2023-02-11T19:12:56.465Z,23.05
2023-02-11T19:15:23.350Z,29.73
2023-02-11T19:17:49.971Z,27.48
2023-02-11T19:20:20.278Z,30.77
2023-02-11T19:22:52.797Z,27.58
2023-02-11T19:25:22.259Z,26.65
2023-02-11T19:27:48.888Z,27.20
2023-02-11T19:30:15.554Z,29.63
2023-02-11T19:32:42.190Z,27.23
2023-02-11T19:35:10.861Z,29.90
2023-02-11T19:37:40.634Z,30.88
2023-02-11T19:40:11.006Z,28.45
2023-02-11T19:42:39.400Z,28.73
2023-02-11T19:45:08.815Z,28.42
2023-02-11T19:47:35.822Z,28.98
2023-02-11T19:50:02.782Z,28.83
2023-02-11T19:52:29.449Z,28.95
2023-02-11T19:54:59.197Z,30.30
2023-02-11T19:57:28.730Z,29.83
2023-02-11T19:59:55.409Z,28.48
2023-02-11T20:02:25.240Z,28.10
2023-02-11T20:04:51.876Z,28.17
2023-02-11T20:07:18.516Z,28.45
2023-02-11T20:09:45.337Z,28.17
2023-02-11T20:12:12.136Z,25.88
2023-02-11T20:14:47.748Z,28.65
2023-02-11T20:17:17.682Z,28.38
2023-02-11T20:19:44.291Z,23.95
2023-02-11T20:22:10.954Z,27.63
2023-02-11T20:24:37.609Z,29.10
2023-02-11T20:27:04.353Z,26.85
2023-02-11T20:29:30.981Z,25.90
2023-02-11T20:31:57.826Z,26.55
2023-02-11T20:34:24.613Z,26.85
2023-02-11T20:36:53.119Z,27.88
2023-02-11T20:39:22.062Z,28.35
2023-02-11T20:41:50.108Z,28.55
2023-02-11T20:44:20.667Z,26.77
2023-02-11T20:46:47.937Z,26.33
2023-02-11T20:49:18.940Z,25.17
2023-02-11T20:51:53.732Z,27.92
2023-02-11T20:54:36.729Z,26.45
2023-02-11T20:57:03.598Z,26.50
2023-02-11T20:59:31.070Z,25.90
2023-02-11T21:01:58.191Z,25.83
2023-02-11T21:04:30.787Z,26.33
2023-02-11T21:07:00.216Z,25.48
2023-02-11T21:09:30.052Z,25.23
2023-02-11T21:12:05.248Z,24.50
2023-02-11T21:14:40.369Z,24.83
2023-02-11T21:17:07.432Z,23.85
2023-02-11T21:19:34.112Z,24.65
2023-02-11T21:22:01.289Z,23.73
2023-02-11T21:24:31.844Z,24.50
2023-02-11T21:26:59.630Z,21.50
2023-02-11T21:29:29.929Z,23.38
2023-02-11T21:32:02.167Z,24.67
2023-02-11T21:34:36.858Z,23.45
2023-02-11T21:37:07.622Z,24.95
2023-02-11T21:39:34.329Z,24.98
2023-02-11T21:42:30.061Z,24.63
2023-02-11T21:44:57.488Z,24.30
2023-02-11T21:47:31.595Z,23.17
2023-02-11T21:50:01.249Z,24.45
2023-02-11T21:52:31.344Z,23.50
2023-02-11T21:54:57.977Z,27.90
2023-02-11T21:57:25.027Z,27.08
2023-02-11T21:59:54.857Z,25.30
2023-02-11T22:02:23.527Z,25.77
2023-02-11T22:04:52.840Z,27.45
2023-02-11T22:07:25.886Z,26.40
2023-02-11T22:10:00.724Z,24.33
2023-02-11T22:12:36.828Z,24.15
2023-02-11T22:15:03.664Z,25.80
2023-02-11T22:17:30.639Z,25.77
2023-02-11T22:20:13.744Z,25.60
2023-02-11T22:22:53.217Z,27.13
2023-02-11T22:25:29.622Z,25.50
2023-02-11T22:27:57.257Z,24.40
2023-02-11T22:30:25.264Z,25.13
2023-02-11T22:32:51.969Z,25.85
2023-02-11T22:35:18.656Z,26.25
2023-02-11T22:37:45.480Z,24.63
2023-02-11T22:40:12.973Z,26.02
2023-02-11T22:42:48.155Z,22.55
2023-02-11T22:45:14.859Z,25.70
2023-02-11T22:47:47.725Z,24.90
2023-02-11T22:50:14.444Z,24.65
2023-02-11T22:52:44.514Z,25.08
2023-02-11T22:55:22.094Z,24.23
2023-02-11T22:57:53.253Z,24.15
2023-02-11T23:00:30.903Z,21.07
2023-02-11T23:03:00.237Z,24.65
2023-02-11T23:05:29.748Z,24.35
2023-02-11T23:07:59.615Z,24.40
2023-02-11T23:10:31.907Z,24.23
2023-02-11T23:13:03.688Z,21.88
2023-02-11T23:15:33.927Z,21.88
2023-02-11T23:18:00.807Z,22.67
2023-02-11T23:20:27.615Z,20.45
2023-02-11T23:23:11.690Z,22.15
2023-02-11T23:25:47.509Z,19.23
2023-02-11T23:28:16.936Z,21.08
2023-02-11T23:30:54.903Z,20.88
2023-02-11T23:33:22.218Z,19.25
2023-02-11T23:35:52.194Z,19.92
2023-02-11T23:38:34.888Z,20.92
2023-02-11T23:41:07.748Z,19.98
2023-02-11T23:43:40.195Z,21.40
2023-02-11T23:46:10.117Z,21.30
2023-02-11T23:48:45.852Z,20.15
2023-02-11T23:51:12.833Z,20.05
2023-02-11T23:53:45.367Z,20.40
2023-02-11T23:56:22.885Z,19.83
2023-02-11T23:58:56.312Z,18.35
